Time;durP1;ratioP1;P1;durP2;ratioP2;P2;SDS_P1;SDS_P2;PMS_P1;PMS_P2;Temp;Humidity;BMP_temperature;BMP_pressure;BME280_temperature;BME280_humidity;BME280_pressure;Samples;Min_cycle;Max_cycle;Signal;HPM_P1;HPM_P2
2022/12/03 00:00:47;;;;;;;50.43;22.27;;;;;;;;;;6578597;28;20543;-92
2022/12/03 00:03:58;;;;;;;30.60;15.57;;;;;;;;;;6595861;28;20243;-92
2022/12/03 00:07:08;;;;;;;46.30;21.43;;;;;;;;;;6578900;28;20181;-91
2022/12/03 00:10:18;;;;;;;45.47;21.37;;;;;;;;;;6571624;28;20181;-89
2022/12/03 00:13:29;;;;;;;45.00;21.93;;;;;;;;;;6596204;28;20199;-89
2022/12/03 00:16:39;;;;;;;41.93;21.10;;;;;;;;;;6578324;28;20720;-90
2022/12/03 00:19:49;;;;;;;42.47;19.93;;;;;;;;;;6578202;28;20254;-89
2022/12/03 00:23:00;;;;;;;42.10;19.03;;;;;;;;;;6596762;28;20521;-90
2022/12/03 00:26:11;;;;;;;37.50;18.83;;;;;;;;;;6577971;28;20184;-89
2022/12/03 00:29:22;;;;;;;42.53;21.00;;;;;;;;;;6596412;28;20183;-89
2022/12/03 00:32:32;;;;;;;47.70;22.83;;;;;;;;;;6570175;28;20575;-89
2022/12/03 00:35:44;;;;;;;52.97;25.13;;;;;;;;;;6596083;28;20216;-90
2022/12/03 00:38:54;;;;;;;51.50;22.80;;;;;;;;;;6595526;28;20282;-89
2022/12/03 00:42:04;;;;;;;43.67;22.73;;;;;;;;;;6596020;28;20176;-90
2022/12/03 00:45:15;;;;;;;48.07;22.63;;;;;;;;;;6578491;28;20180;-90
2022/12/03 00:48:25;;;;;;;39.20;21.30;;;;;;;;;;6577362;28;20184;-90
2022/12/03 00:51:35;;;;;;;29.10;14.80;;;;;;;;;;6595495;28;20753;-89
2022/12/03 00:54:45;;;;;;;43.77;20.97;;;;;;;;;;6595612;28;20176;-91
2022/12/03 00:57:56;;;;;;;38.40;16.60;;;;;;;;;;6594560;28;20541;-91
2022/12/03 01:01:06;;;;;;;34.83;17.77;;;;;;;;;;6577330;28;20346;-90
2022/12/03 01:04:16;;;;;;;29.47;14.87;;;;;;;;;;6578630;28;20665;-90
2022/12/03 01:07:27;;;;;;;44.20;20.87;;;;;;;;;;6578127;28;20207;-91
2022/12/03 01:10:37;;;;;;;41.27;20.40;;;;;;;;;;6595950;28;20542;-90
2022/12/03 01:13:48;;;;;;;37.03;18.67;;;;;;;;;;6578770;28;20168;-90
2022/12/03 01:16:58;;;;;;;32.17;16.43;;;;;;;;;;6596164;28;20669;-90
2022/12/03 01:20:09;;;;;;;36.50;17.13;;;;;;;;;;6595677;28;20211;-90
2022/12/03 01:23:19;;;;;;;41.47;19.67;;;;;;;;;;6578610;28;20183;-90
2022/12/03 01:26:30;;;;;;;39.27;19.17;;;;;;;;;;6577916;28;20179;-90
2022/12/03 01:29:41;;;;;;;36.07;19.83;;;;;;;;;;6578238;28;20552;-90
2022/12/03 01:32:51;;;;;;;32.23;17.20;;;;;;;;;;6595859;28;20307;-90
2022/12/03 01:36:02;;;;;;;39.53;19.53;;;;;;;;;;6577693;28;20212;-90
2022/12/03 01:39:12;;;;;;;42.53;20.53;;;;;;;;;;6577674;28;20247;-90
2022/12/03 01:42:24;;;;;;;37.60;17.90;;;;;;;;;;6595190;28;20168;-90
2022/12/03 01:45:36;;;;;;;31.03;16.63;;;;;;;;;;6595677;28;20176;-90
2022/12/03 01:48:49;;;;;;;40.57;20.17;;;;;;;;;;6578315;28;20179;-91
2022/12/03 01:51:59;;;;;;;42.43;19.07;;;;;;;;;;6596382;28;20168;-91
2022/12/03 01:55:14;;;;;;;33.83;17.47;;;;;;;;;;6595568;28;20167;-90
2022/12/03 01:58:26;;;;;;;32.70;18.20;;;;;;;;;;6577848;28;20200;-91
2022/12/03 02:01:36;;;;;;;41.07;20.67;;;;;;;;;;6577883;28;20614;-91
2022/12/03 02:04:46;;;;;;;25.87;14.10;;;;;;;;;;6594748;28;20238;-91
2022/12/03 02:07:57;;;;;;;39.60;19.90;;;;;;;;;;6595462;28;20173;-91
2022/12/03 02:11:13;;;;;;;41.37;20.53;;;;;;;;;;6581119;28;20204;-91
2022/12/03 02:14:23;;;;;;;40.70;20.77;;;;;;;;;;6600605;28;20159;-91
2022/12/03 02:17:34;;;;;;;39.73;21.13;;;;;;;;;;6583646;28;20200;-91
2022/12/03 02:20:59;;;;;;;37.67;18.77;;;;;;;;;;6582620;28;20168;-92
2022/12/03 02:24:20;;;;;;;40.27;19.47;;;;;;;;;;6600284;28;20210;-91
2022/12/03 02:27:30;;;;;;;39.77;20.60;;;;;;;;;;6600849;28;20178;-90
2022/12/03 02:30:40;;;;;;;42.77;20.33;;;;;;;;;;6582744;28;20173;-90
2022/12/03 02:33:51;;;;;;;46.23;19.93;;;;;;;;;;6581655;28;20267;-91
2022/12/03 02:37:02;;;;;;;42.80;21.83;;;;;;;;;;6582157;28;20570;-90
2022/12/03 02:40:18;;;;;;;49.87;24.47;;;;;;;;;;6582203;28;20212;-91
2022/12/03 02:43:28;;;;;;;44.57;23.17;;;;;;;;;;6582479;28;20180;-91
2022/12/03 02:46:40;;;;;;;30.57;15.83;;;;;;;;;;6581618;28;20278;-91
2022/12/03 02:49:50;;;;;;;30.07;14.70;;;;;;;;;;6599331;28;20219;-90
2022/12/03 02:53:03;;;;;;;41.57;18.10;;;;;;;;;;6581147;28;20176;-90
2022/12/03 02:56:15;;;;;;;39.37;19.57;;;;;;;;;;6599441;28;20180;-90
2022/12/03 02:59:25;;;;;;;41.40;21.90;;;;;;;;;;6598997;28;20239;-91
2022/12/03 03:02:36;;;;;;;33.60;17.77;;;;;;;;;;6582339;28;20581;-91
2022/12/03 03:05:47;;;;;;;43.87;21.23;;;;;;;;;;6581430;28;20204;-91
2022/12/03 03:08:57;;;;;;;40.83;20.87;;;;;;;;;;6598582;28;20555;-91
2022/12/03 03:12:08;;;;;;;37.93;19.17;;;;;;;;;;6581421;28;20211;-90
2022/12/03 03:15:19;;;;;;;39.30;19.57;;;;;;;;;;6580961;28;20183;-89
2022/12/03 03:18:29;;;;;;;46.73;21.03;;;;;;;;;;6599078;28;20204;-91
2022/12/03 03:21:39;;;;;;;41.17;20.20;;;;;;;;;;6580174;28;20260;-92
2022/12/03 03:24:50;;;;;;;33.87;18.23;;;;;;;;;;6580990;28;20226;-90
2022/12/03 03:28:00;;;;;;;41.10;20.17;;;;;;;;;;6580693;28;20192;-91
2022/12/03 03:31:13;;;;;;;38.63;19.93;;;;;;;;;;6598307;28;20283;-90
2022/12/03 03:34:24;;;;;;;34.53;18.57;;;;;;;;;;6599606;28;20228;-91
2022/12/03 03:37:34;;;;;;;35.13;19.10;;;;;;;;;;6581006;28;20299;-91
2022/12/03 03:40:46;;;;;;;38.20;20.00;;;;;;;;;;6580398;28;20180;-90
2022/12/03 03:44:00;;;;;;;41.03;20.57;;;;;;;;;;6580478;28;20176;-89
2022/12/03 03:47:10;;;;;;;32.73;16.83;;;;;;;;;;6580743;28;20187;-89
2022/12/03 03:50:21;;;;;;;38.93;20.40;;;;;;;;;;6597813;28;20196;-89
2022/12/03 03:53:31;;;;;;;37.50;17.57;;;;;;;;;;6580737;28;20218;-89
2022/12/03 03:56:42;;;;;;;37.77;19.57;;;;;;;;;;6579972;28;20184;-89
2022/12/03 03:59:52;;;;;;;37.30;19.47;;;;;;;;;;6598301;28;20200;-89
2022/12/03 04:03:03;;;;;;;38.23;19.43;;;;;;;;;;6597625;28;20633;-89
2022/12/03 04:06:13;;;;;;;33.47;17.13;;;;;;;;;;6598228;28;20179;-88
2022/12/03 04:09:24;;;;;;;39.20;19.63;;;;;;;;;;6597714;28;20578;-89
2022/12/03 04:16:03;;;;;;;38.43;19.83;;;;;;;;;;6597350;28;20164;-89
2022/12/03 04:19:13;;;;;;;25.63;12.13;;;;;;;;;;6597134;28;20204;-89
2022/12/03 04:22:39;;;;;;;32.20;17.30;;;;;;;;;;6579357;28;20302;-89
2022/12/03 04:29:18;;;;;;;28.13;16.53;;;;;;;;;;6597921;28;20559;-90
2022/12/03 04:35:58;;;;;;;31.80;16.27;;;;;;;;;;6597078;28;20207;-90
2022/12/03 04:39:09;;;;;;;37.73;18.73;;;;;;;;;;6596929;28;20208;-89
2022/12/03 04:42:21;;;;;;;26.07;13.57;;;;;;;;;;6597636;28;20632;-89
2022/12/03 04:45:31;;;;;;;33.63;18.63;;;;;;;;;;6597652;28;20203;-89
2022/12/03 04:48:41;;;;;;;23.40;13.10;;;;;;;;;;6579366;28;20234;-90
2022/12/03 04:51:52;;;;;;;27.03;14.47;;;;;;;;;;6595948;28;20198;-89
2022/12/03 04:55:02;;;;;;;32.20;17.50;;;;;;;;;;6578830;28;20230;-89
2022/12/03 04:58:12;;;;;;;33.23;19.10;;;;;;;;;;6596214;28;20263;-90
2022/12/03 05:01:23;;;;;;;34.43;18.73;;;;;;;;;;6579050;28;20176;-89
2022/12/03 05:04:33;;;;;;;36.40;19.33;;;;;;;;;;6596763;28;20168;-90
2022/12/03 05:07:43;;;;;;;32.57;18.03;;;;;;;;;;6578648;28;20243;-90
2022/12/03 05:10:54;;;;;;;28.10;15.57;;;;;;;;;;6596090;28;20191;-90
2022/12/03 05:14:04;;;;;;;29.77;15.40;;;;;;;;;;6596385;28;20227;-90
2022/12/03 05:17:14;;;;;;;32.93;17.27;;;;;;;;;;6578736;28;20181;-90
2022/12/03 05:20:40;;;;;;;31.57;17.30;;;;;;;;;;6578707;28;20187;-88
2022/12/03 05:23:50;;;;;;;24.93;13.43;;;;;;;;;;6565012;28;20181;-89
2022/12/03 05:27:00;;;;;;;35.87;17.80;;;;;;;;;;6578270;28;20195;-89
2022/12/03 05:30:11;;;;;;;26.43;15.23;;;;;;;;;;6596976;28;20234;-89
2022/12/03 05:33:21;;;;;;;38.60;22.23;;;;;;;;;;6596182;28;20269;-89
2022/12/03 05:36:31;;;;;;;29.43;18.13;;;;;;;;;;6596427;28;20651;-89
2022/12/03 05:39:42;;;;;;;30.70;16.87;;;;;;;;;;6596204;28;20197;-89
2022/12/03 05:42:52;;;;;;;34.77;18.30;;;;;;;;;;6595817;28;20179;-89
2022/12/03 05:46:02;;;;;;;32.53;17.40;;;;;;;;;;6585166;28;20626;-89
2022/12/03 05:49:13;;;;;;;33.87;19.23;;;;;;;;;;6604058;28;20190;-89
2022/12/03 05:52:23;;;;;;;37.10;18.70;;;;;;;;;;6604093;28;20172;-89
2022/12/03 05:55:33;;;;;;;34.90;18.90;;;;;;;;;;6586275;28;20266;-89
2022/12/03 05:58:44;;;;;;;48.43;26.57;;;;;;;;;;6586405;28;20206;-89
2022/12/03 06:01:54;;;;;;;34.47;19.80;;;;;;;;;;6585763;28;20180;-89
2022/12/03 06:05:04;;;;;;;29.37;18.20;;;;;;;;;;6604554;28;20373;-89
2022/12/03 06:08:15;;;;;;;34.13;18.30;;;;;;;;;;6604227;28;20647;-89
2022/12/03 06:11:25;;;;;;;33.53;18.50;;;;;;;;;;6604430;28;20183;-89
2022/12/03 06:14:35;;;;;;;31.60;17.50;;;;;;;;;;6603751;28;20180;-89
2022/12/03 06:17:46;;;;;;;24.67;15.27;;;;;;;;;;6603312;28;20294;-90
2022/12/03 06:20:56;;;;;;;29.87;16.93;;;;;;;;;;6603689;28;20549;-90
2022/12/03 06:24:07;;;;;;;25.13;13.70;;;;;;;;;;6603311;28;20652;-89
2022/12/03 06:27:17;;;;;;;24.50;15.57;;;;;;;;;;6604448;28;20173;-89
2022/12/03 06:30:27;;;;;;;35.17;19.80;;;;;;;;;;6586141;28;20187;-90
2022/12/03 06:33:38;;;;;;;36.47;19.87;;;;;;;;;;6604331;28;20224;-90
2022/12/03 06:36:49;;;;;;;31.07;17.50;;;;;;;;;;6603838;28;20192;-90
2022/12/03 06:39:59;;;;;;;32.37;17.77;;;;;;;;;;6603366;28;20674;-88
2022/12/03 06:43:09;;;;;;;29.13;16.40;;;;;;;;;;6603482;28;20238;-90
2022/12/03 06:46:20;;;;;;;30.87;18.90;;;;;;;;;;6585603;28;20182;-91
2022/12/03 06:49:30;;;;;;;30.97;17.20;;;;;;;;;;6585676;28;20701;-91
2022/12/03 06:52:40;;;;;;;33.43;17.07;;;;;;;;;;6603922;28;20247;-88
2022/12/03 06:55:51;;;;;;;26.53;15.27;;;;;;;;;;6601032;28;20287;-88
2022/12/03 06:59:01;;;;;;;39.90;21.20;;;;;;;;;;6599529;28;20291;-88
2022/12/03 07:02:11;;;;;;;39.87;21.03;;;;;;;;;;6599118;28;20180;-88
2022/12/03 07:05:22;;;;;;;42.87;23.73;;;;;;;;;;6599301;28;20196;-91
2022/12/03 07:08:32;;;;;;;36.33;22.20;;;;;;;;;;6581478;28;20549;-90
2022/12/03 07:11:42;;;;;;;28.97;17.03;;;;;;;;;;6581163;28;20181;-90
2022/12/03 07:14:52;;;;;;;28.80;17.10;;;;;;;;;;6581469;28;20177;-90
2022/12/03 07:18:03;;;;;;;31.33;18.73;;;;;;;;;;6581241;28;20219;-90
2022/12/03 07:21:13;;;;;;;32.53;18.90;;;;;;;;;;6580797;28;20180;-89
2022/12/03 07:24:23;;;;;;;38.70;21.10;;;;;;;;;;6581564;28;20180;-89
2022/12/03 07:27:34;;;;;;;33.23;19.33;;;;;;;;;;6598222;28;20184;-89
2022/12/03 07:30:44;;;;;;;37.83;21.83;;;;;;;;;;6599531;28;20565;-90
2022/12/03 07:33:54;;;;;;;37.03;20.13;;;;;;;;;;6580582;28;20290;-90
2022/12/03 07:37:06;;;;;;;34.73;21.37;;;;;;;;;;6598596;28;20224;-91
2022/12/03 07:40:18;;;;;;;38.70;20.67;;;;;;;;;;6580782;28;20219;-90
2022/12/03 07:43:28;;;;;;;36.53;19.77;;;;;;;;;;6580525;28;20183;-90
2022/12/03 07:46:38;;;;;;;43.07;24.37;;;;;;;;;;6570931;28;20271;-90
2022/12/03 07:49:49;;;;;;;31.97;19.53;;;;;;;;;;6580425;28;20184;-91
2022/12/03 07:52:59;;;;;;;35.63;20.10;;;;;;;;;;6579688;28;20180;-93
2022/12/03 07:56:09;;;;;;;36.73;21.87;;;;;;;;;;6570710;28;20196;-92
2022/12/03 07:59:20;;;;;;;39.70;21.90;;;;;;;;;;6579811;28;20211;-92
2022/12/03 08:02:31;;;;;;;37.47;22.57;;;;;;;;;;6554530;28;20231;-92
2022/12/03 08:05:42;;;;;;;37.07;19.83;;;;;;;;;;6554595;28;20601;-92
2022/12/03 08:08:53;;;;;;;34.70;20.53;;;;;;;;;;6571466;28;20181;-92
2022/12/03 08:12:11;;;;;;;37.90;23.20;;;;;;;;;;6572404;28;20185;-92
2022/12/03 08:15:23;;;;;;;34.40;19.03;;;;;;;;;;6571955;28;20272;-92
2022/12/03 08:18:33;;;;;;;32.50;18.40;;;;;;;;;;6571833;28;20563;-91
2022/12/03 08:21:44;;;;;;;48.17;25.50;;;;;;;;;;6554276;28;20180;-90
2022/12/03 08:24:56;;;;;;;36.93;22.27;;;;;;;;;;6554046;28;20173;-90
2022/12/03 08:28:10;;;;;;;36.63;20.87;;;;;;;;;;6561818;28;20219;-92
2022/12/03 08:31:22;;;;;;;45.03;24.60;;;;;;;;;;6576893;28;20231;-92
2022/12/03 08:34:37;;;;;;;131.53;48.30;;;;;;;;;;6578495;28;20173;-91
2022/12/03 08:37:49;;;;;;;80.77;39.10;;;;;;;;;;6577405;28;20659;-89
2022/12/03 08:40:59;;;;;;;51.20;28.10;;;;;;;;;;6596707;28;20172;-90
2022/12/03 08:44:26;;;;;;;40.40;21.60;;;;;;;;;;6578541;28;20211;-89
2022/12/03 08:47:39;;;;;;;37.57;22.30;;;;;;;;;;6576313;28;20619;-89
2022/12/03 08:50:49;;;;;;;42.10;22.77;;;;;;;;;;6578389;28;20651;-89
2022/12/03 08:54:07;;;;;;;59.63;30.70;;;;;;;;;;6578930;28;20271;-88
2022/12/03 08:57:25;;;;;;;37.23;20.00;;;;;;;;;;6596851;28;20160;-89
2022/12/03 09:00:36;;;;;;;37.70;21.87;;;;;;;;;;6579007;28;20191;-89
2022/12/03 09:03:48;;;;;;;46.27;23.80;;;;;;;;;;6596831;28;20215;-90
2022/12/03 09:06:59;;;;;;;37.57;19.23;;;;;;;;;;6595746;28;20191;-90
2022/12/03 09:10:09;;;;;;;30.00;15.67;;;;;;;;;;6578237;28;20172;-90
2022/12/03 09:13:19;;;;;;;51.93;26.37;;;;;;;;;;6596938;28;20203;-89
2022/12/03 09:16:30;;;;;;;44.57;25.43;;;;;;;;;;6596276;28;20533;-89
2022/12/03 09:19:43;;;;;;;49.87;25.60;;;;;;;;;;6595473;28;20287;-89
2022/12/03 09:22:54;;;;;;;46.03;24.53;;;;;;;;;;6595239;28;20177;-91
2022/12/03 09:26:04;;;;;;;47.10;24.33;;;;;;;;;;6571625;28;20634;-90
2022/12/03 09:29:14;;;;;;;45.17;25.03;;;;;;;;;;6576900;28;20179;-91
2022/12/03 09:32:25;;;;;;;52.53;27.60;;;;;;;;;;6567813;28;20220;-90
2022/12/03 09:35:35;;;;;;;44.47;23.23;;;;;;;;;;6576859;28;20200;-90
2022/12/03 09:38:45;;;;;;;42.40;23.23;;;;;;;;;;6576980;28;20230;-91
2022/12/03 09:41:56;;;;;;;48.20;24.87;;;;;;;;;;6576978;28;20262;-89
2022/12/03 09:45:11;;;;;;;47.10;25.83;;;;;;;;;;6576530;28;20582;-91
2022/12/03 09:48:21;;;;;;;35.63;20.80;;;;;;;;;;6547740;28;20593;-90
2022/12/03 09:51:35;;;;;;;52.83;24.23;;;;;;;;;;6594362;28;20196;-90
2022/12/03 09:54:45;;;;;;;52.40;26.57;;;;;;;;;;6571091;28;20187;-90
2022/12/03 09:57:56;;;;;;;46.00;25.07;;;;;;;;;;6593696;28;20682;-88
2022/12/03 10:01:12;;;;;;;55.87;30.00;;;;;;;;;;6591135;28;20180;-88
2022/12/03 10:04:23;;;;;;;53.60;26.03;;;;;;;;;;6594421;28;20168;-88
2022/12/03 10:07:34;;;;;;;51.37;26.63;;;;;;;;;;6576753;28;20576;-89
2022/12/03 10:10:45;;;;;;;52.60;29.00;;;;;;;;;;6594310;28;20215;-87
2022/12/03 10:13:57;;;;;;;47.27;25.57;;;;;;;;;;6593715;28;20207;-88
2022/12/03 10:17:10;;;;;;;61.77;28.70;;;;;;;;;;6584553;28;20176;-87
2022/12/03 10:20:21;;;;;;;58.67;30.63;;;;;;;;;;6576313;28;20279;-87
2022/12/03 10:23:31;;;;;;;61.03;28.53;;;;;;;;;;6595254;28;20176;-87
2022/12/03 10:26:44;;;;;;;49.30;24.77;;;;;;;;;;6594069;28;20197;-89
2022/12/03 10:29:55;;;;;;;55.90;29.07;;;;;;;;;;6596225;28;20226;-88
2022/12/03 10:33:12;;;;;;;54.43;26.83;;;;;;;;;;6576841;28;20686;-87
2022/12/03 10:36:24;;;;;;;51.27;24.00;;;;;;;;;;6594283;28;20197;-88
2022/12/03 10:39:51;;;;;;;63.13;32.17;;;;;;;;;;6582361;28;20216;-89
2022/12/03 10:43:12;;;;;;;55.17;28.07;;;;;;;;;;6579478;28;20639;-89
2022/12/03 10:46:22;;;;;;;65.30;29.57;;;;;;;;;;6580655;28;20193;-89
2022/12/03 10:49:33;;;;;;;58.20;26.53;;;;;;;;;;6583281;28;20713;-89
2022/12/03 10:52:44;;;;;;;61.60;28.20;;;;;;;;;;6599420;28;20169;-89
2022/12/03 10:55:58;;;;;;;66.60;27.50;;;;;;;;;;6588429;28;20589;-89
2022/12/03 10:59:19;;;;;;;53.23;25.13;;;;;;;;;;6593930;28;20255;-91
2022/12/03 11:02:30;;;;;;;68.30;29.63;;;;;;;;;;6581214;28;20185;-90
2022/12/03 11:05:40;;;;;;;56.27;28.37;;;;;;;;;;6596985;28;20215;-90
2022/12/03 11:08:52;;;;;;;60.03;27.83;;;;;;;;;;6572105;28;20180;-91
2022/12/03 11:12:03;;;;;;;65.97;27.87;;;;;;;;;;6580530;28;20180;-91
2022/12/03 11:15:15;;;;;;;86.10;45.93;;;;;;;;;;6579111;28;20180;-91
2022/12/03 11:18:34;;;;;;;67.03;30.83;;;;;;;;;;6574705;28;20204;-91
2022/12/03 11:22:08;;;;;;;41.97;19.27;;;;;;;;;;6580564;28;20310;-91
2022/12/03 11:25:28;;;;;;;64.97;30.03;;;;;;;;;;6573403;28;20188;-91
2022/12/03 11:28:44;;;;;;;84.83;39.87;;;;;;;;;;6595900;28;20177;-91
2022/12/03 11:31:54;;;;;;;47.40;22.40;;;;;;;;;;6579037;28;20315;-91
2022/12/03 11:35:36;;;;;;;85.63;40.63;;;;;;;;;;6577470;28;20183;-91
2022/12/03 11:38:48;;;;;;;64.77;31.33;;;;;;;;;;6579865;28;20311;-92
2022/12/03 11:42:24;;;;;;;65.13;32.23;;;;;;;;;;6579141;28;20634;-92
2022/12/03 11:45:35;;;;;;;73.17;31.03;;;;;;;;;;6576175;28;20188;-92
2022/12/03 11:48:48;;;;;;;99.10;42.43;;;;;;;;;;6572754;28;20189;-92
2022/12/03 11:51:59;;;;;;;70.53;32.73;;;;;;;;;;6579517;28;20307;-92
2022/12/03 11:55:27;;;;;;;73.93;33.80;;;;;;;;;;6596644;28;20267;-93
2022/12/03 11:58:38;;;;;;;65.53;29.13;;;;;;;;;;6580946;28;20215;-92
2022/12/03 12:01:48;;;;;;;61.23;27.00;;;;;;;;;;6570905;28;20177;-89
2022/12/03 12:05:14;;;;;;;70.63;35.40;;;;;;;;;;6570877;28;20192;-89
2022/12/03 12:08:25;;;;;;;61.83;29.70;;;;;;;;;;6571094;28;20185;-92
2022/12/03 12:11:42;;;;;;;73.00;33.20;;;;;;;;;;6592941;28;20196;-91
2022/12/03 12:14:53;;;;;;;72.03;34.53;;;;;;;;;;6597118;28;20203;-91
2022/12/03 12:18:22;;;;;;;66.60;32.30;;;;;;;;;;6578966;28;20239;-91
2022/12/03 12:21:42;;;;;;;66.37;31.70;;;;;;;;;;6595731;28;20179;-90
2022/12/03 12:24:53;;;;;;;74.43;33.73;;;;;;;;;;6596769;28;20165;-91
2022/12/03 12:28:04;;;;;;;63.03;30.73;;;;;;;;;;6596470;28;20243;-91
2022/12/03 12:31:16;;;;;;;53.53;27.43;;;;;;;;;;6596894;28;20161;-91
2022/12/03 12:34:27;;;;;;;42.33;20.83;;;;;;;;;;6596913;28;20239;-90
2022/12/03 12:37:42;;;;;;;69.40;30.30;;;;;;;;;;6595933;28;20215;-91
2022/12/03 12:40:53;;;;;;;67.47;29.70;;;;;;;;;;6578556;28;20173;-90
2022/12/03 12:44:08;;;;;;;88.63;38.80;;;;;;;;;;6578184;28;20615;-91
2022/12/03 12:47:20;;;;;;;92.00;42.47;;;;;;;;;;6595842;28;20271;-92
2022/12/03 12:50:32;;;;;;;66.60;33.43;;;;;;;;;;6579155;28;20177;-93
2022/12/03 12:53:42;;;;;;;68.90;35.07;;;;;;;;;;6577259;28;20180;-90
2022/12/03 12:56:52;;;;;;;83.87;37.50;;;;;;;;;;6574299;28;20247;-90
2022/12/03 13:00:03;;;;;;;90.07;38.83;;;;;;;;;;6590267;28;20212;-90
2022/12/03 13:03:15;;;;;;;84.93;38.50;;;;;;;;;;6592982;28;20185;-89
2022/12/03 13:06:28;;;;;;;72.23;34.87;;;;;;;;;;6595279;28;20180;-90
2022/12/03 13:09:38;;;;;;;59.13;28.07;;;;;;;;;;6594656;28;20207;-90
2022/12/03 13:12:49;;;;;;;67.47;32.47;;;;;;;;;;6594919;28;20168;-90
2022/12/03 13:16:05;;;;;;;75.03;34.17;;;;;;;;;;6573223;28;20185;-90
2022/12/03 13:19:20;;;;;;;77.23;37.47;;;;;;;;;;6576895;28;20243;-91
2022/12/03 13:22:30;;;;;;;68.03;34.97;;;;;;;;;;6594396;28;20620;-90
2022/12/03 13:25:40;;;;;;;76.37;37.00;;;;;;;;;;6576403;28;20180;-91
2022/12/03 13:28:52;;;;;;;64.73;34.63;;;;;;;;;;6574925;28;20234;-90
2022/12/03 13:32:09;;;;;;;65.17;33.57;;;;;;;;;;6593640;28;20220;-91
2022/12/03 13:35:33;;;;;;;94.07;45.97;;;;;;;;;;6591561;28;20267;-89
2022/12/03 13:38:44;;;;;;;85.93;41.57;;;;;;;;;;6576840;28;20276;-92
2022/12/03 13:45:43;;;;;;;88.57;42.90;;;;;;;;;;6590777;28;20183;-90
2022/12/03 13:48:54;;;;;;;91.57;43.33;;;;;;;;;;6593430;28;20554;-90
2022/12/03 13:52:14;;;;;;;73.00;36.80;;;;;;;;;;6593373;28;20267;-90
2022/12/03 13:55:25;;;;;;;58.43;30.13;;;;;;;;;;6589703;28;20188;-89
2022/12/03 13:58:36;;;;;;;57.37;30.17;;;;;;;;;;6594179;28;20219;-88
2022/12/03 14:01:46;;;;;;;73.30;35.57;;;;;;;;;;6593531;28;20176;-91
2022/12/03 14:04:56;;;;;;;70.60;33.93;;;;;;;;;;6573841;28;20688;-90
2022/12/03 14:08:07;;;;;;;86.50;36.27;;;;;;;;;;6577728;28;20187;-91
2022/12/03 14:14:46;;;;;;;103.43;45.87;;;;;;;;;;6596998;28;20186;-91
2022/12/03 14:17:56;;;;;;;71.67;33.00;;;;;;;;;;6599855;28;20523;-92
2022/12/03 14:21:06;;;;;;;59.33;30.43;;;;;;;;;;6563337;28;20177;-90
2022/12/03 14:24:16;;;;;;;82.47;43.23;;;;;;;;;;6556745;28;20176;-90
2022/12/03 14:27:27;;;;;;;111.37;50.67;;;;;;;;;;6574866;28;20201;-90
2022/12/03 14:30:37;;;;;;;49.53;23.10;;;;;;;;;;6593204;28;20172;-90
2022/12/03 14:33:47;;;;;;;73.53;34.47;;;;;;;;;;6600302;28;20227;-90
2022/12/03 14:36:58;;;;;;;73.23;36.97;;;;;;;;;;6599311;28;20208;-90
2022/12/03 14:40:08;;;;;;;86.27;40.80;;;;;;;;;;6600092;28;20212;-90
2022/12/03 14:43:19;;;;;;;88.50;41.47;;;;;;;;;;6599628;28;20645;-91
2022/12/03 14:46:29;;;;;;;72.53;37.17;;;;;;;;;;6599708;28;20214;-91
2022/12/03 14:49:40;;;;;;;65.73;31.57;;;;;;;;;;6600562;28;20255;-90
2022/12/03 14:52:50;;;;;;;64.53;33.80;;;;;;;;;;6599484;28;20633;-90
2022/12/03 14:56:00;;;;;;;115.23;54.70;;;;;;;;;;6581513;28;20251;-90
2022/12/03 14:59:10;;;;;;;92.03;47.90;;;;;;;;;;6590447;28;20200;-89
2022/12/03 15:02:21;;;;;;;103.00;51.20;;;;;;;;;;6591030;28;20223;-90
2022/12/03 15:05:31;;;;;;;116.80;59.03;;;;;;;;;;6598944;28;20181;-90
2022/12/03 15:08:41;;;;;;;82.47;42.90;;;;;;;;;;6599727;28;20251;-89
2022/12/03 15:11:52;;;;;;;78.47;40.23;;;;;;;;;;6600038;28;20264;-89
2022/12/03 15:15:02;;;;;;;68.67;35.80;;;;;;;;;;6597617;28;20203;-87
2022/12/03 15:18:12;;;;;;;76.67;42.50;;;;;;;;;;6597521;28;20235;-88
2022/12/03 15:21:23;;;;;;;100.40;53.47;;;;;;;;;;6598268;28;20183;-88
2022/12/03 15:24:33;;;;;;;93.73;47.80;;;;;;;;;;6580748;28;20211;-88
2022/12/03 15:27:44;;;;;;;81.00;39.63;;;;;;;;;;6599639;28;20191;-87
2022/12/03 15:30:54;;;;;;;90.17;44.63;;;;;;;;;;6598539;28;20246;-86
2022/12/03 15:34:04;;;;;;;97.80;47.97;;;;;;;;;;6579112;28;20244;-88
2022/12/03 15:37:15;;;;;;;104.40;49.70;;;;;;;;;;6556182;28;20700;-87
2022/12/03 15:40:25;;;;;;;91.80;46.33;;;;;;;;;;6572507;28;20205;-87
2022/12/03 15:43:35;;;;;;;242.93;81.30;;;;;;;;;;6586132;28;20184;-86
2022/12/03 15:46:45;;;;;;;152.77;69.53;;;;;;;;;;6572994;28;20179;-87
2022/12/03 15:49:56;;;;;;;209.50;79.33;;;;;;;;;;6586636;28;20555;-87
2022/12/03 15:53:06;;;;;;;195.00;93.30;;;;;;;;;;6589960;28;20425;-88
2022/12/03 15:56:16;;;;;;;226.03;98.20;;;;;;;;;;6580271;28;20180;-85
2022/12/03 15:59:27;;;;;;;98.93;50.30;;;;;;;;;;6598451;28;20299;-86
2022/12/03 16:02:37;;;;;;;95.23;49.33;;;;;;;;;;6598326;28;20176;-86
2022/12/03 16:05:48;;;;;;;111.00;60.00;;;;;;;;;;6598550;28;20267;-87
2022/12/03 16:08:58;;;;;;;100.43;51.77;;;;;;;;;;6598045;28;20207;-86
2022/12/03 16:12:08;;;;;;;70.13;38.80;;;;;;;;;;6578460;28;20485;-87
2022/12/03 16:15:18;;;;;;;88.40;40.73;;;;;;;;;;6596804;28;20173;-86
2022/12/03 16:18:29;;;;;;;66.93;33.23;;;;;;;;;;6594230;28;20678;-87
2022/12/03 16:21:39;;;;;;;90.47;44.03;;;;;;;;;;6596200;28;20176;-86
2022/12/03 16:24:50;;;;;;;84.30;42.77;;;;;;;;;;6577902;28;20176;-88
2022/12/03 16:28:00;;;;;;;78.77;39.87;;;;;;;;;;6593841;28;20186;-87
2022/12/03 16:31:10;;;;;;;78.03;40.33;;;;;;;;;;6570340;28;20181;-87
2022/12/03 16:34:21;;;;;;;65.63;34.73;;;;;;;;;;6594680;28;20583;-87
2022/12/03 16:37:31;;;;;;;77.87;35.13;;;;;;;;;;6569578;28;20193;-86
2022/12/03 16:40:42;;;;;;;56.40;28.27;;;;;;;;;;6595963;28;20219;-86
2022/12/03 16:43:52;;;;;;;54.17;28.90;;;;;;;;;;6592896;28;20184;-87
2022/12/03 16:47:02;;;;;;;59.13;32.40;;;;;;;;;;6594308;28;20180;-88
2022/12/03 16:50:13;;;;;;;66.43;33.60;;;;;;;;;;6595546;28;20195;-87
2022/12/03 16:53:23;;;;;;;56.97;32.07;;;;;;;;;;6595694;28;20175;-87
2022/12/03 16:56:33;;;;;;;53.40;27.33;;;;;;;;;;6594811;28;20168;-88
2022/12/03 16:59:44;;;;;;;67.13;33.60;;;;;;;;;;6593562;28;20287;-87
2022/12/03 17:02:54;;;;;;;62.87;31.90;;;;;;;;;;6592378;28;20804;-88
2022/12/03 17:06:05;;;;;;;71.30;36.97;;;;;;;;;;6589686;28;20192;-88
2022/12/03 17:09:15;;;;;;;44.50;21.87;;;;;;;;;;6576554;28;20222;-87
2022/12/03 17:12:25;;;;;;;80.67;35.47;;;;;;;;;;6577402;28;20591;-87
2022/12/03 17:15:36;;;;;;;56.53;29.63;;;;;;;;;;6591119;28;20181;-86
2022/12/03 17:18:46;;;;;;;55.17;29.50;;;;;;;;;;6593565;28;20615;-88
2022/12/03 17:21:58;;;;;;;58.00;29.17;;;;;;;;;;6588668;28;20658;-88
2022/12/03 17:25:09;;;;;;;79.93;36.60;;;;;;;;;;6567243;28;20524;-88
2022/12/03 17:28:19;;;;;;;73.60;35.83;;;;;;;;;;6576068;28;20179;-87
2022/12/03 17:31:30;;;;;;;75.47;34.80;;;;;;;;;;6576497;28;20689;-87
2022/12/03 17:34:40;;;;;;;75.23;34.73;;;;;;;;;;6592886;28;20721;-87
2022/12/03 17:37:51;;;;;;;83.20;35.83;;;;;;;;;;6594439;28;20199;-87
2022/12/03 17:41:01;;;;;;;71.80;35.03;;;;;;;;;;6593765;28;20607;-90
2022/12/03 17:44:11;;;;;;;82.03;42.58;;;;;;;;;;6574065;28;20459;-87
2022/12/03 17:47:22;;;;;;;80.87;38.70;;;;;;;;;;6575405;28;20184;-87
2022/12/03 17:50:32;;;;;;;72.30;36.30;;;;;;;;;;6594847;28;20177;-88
2022/12/03 17:53:42;;;;;;;78.07;36.43;;;;;;;;;;6592414;28;20535;-88
2022/12/03 17:56:53;;;;;;;64.73;35.10;;;;;;;;;;6590983;28;20607;-88
2022/12/03 18:00:06;;;;;;;72.77;34.57;;;;;;;;;;6592175;28;20275;-87
2022/12/03 18:03:16;;;;;;;76.20;35.30;;;;;;;;;;6573993;28;20183;-87
2022/12/03 18:06:27;;;;;;;71.20;34.70;;;;;;;;;;6591648;28;20550;-88
2022/12/03 18:09:37;;;;;;;88.00;44.17;;;;;;;;;;6589448;28;20238;-88
2022/12/03 18:12:47;;;;;;;66.43;32.20;;;;;;;;;;6572335;28;20515;-88
2022/12/03 18:15:59;;;;;;;69.87;34.50;;;;;;;;;;6573798;28;20222;-89
2022/12/03 18:19:09;;;;;;;68.50;33.33;;;;;;;;;;6590418;28;20255;-87
2022/12/03 18:22:19;;;;;;;66.43;34.47;;;;;;;;;;6572033;28;20177;-87
2022/12/03 18:25:30;;;;;;;61.77;32.13;;;;;;;;;;6574600;28;20181;-87
2022/12/03 18:28:40;;;;;;;66.70;32.37;;;;;;;;;;6574523;28;20650;-87
2022/12/03 18:31:51;;;;;;;48.37;26.63;;;;;;;;;;6566135;28;20228;-87
2022/12/03 18:35:02;;;;;;;53.13;27.03;;;;;;;;;;6573737;28;20552;-88
2022/12/03 18:38:13;;;;;;;74.40;34.57;;;;;;;;;;6591330;28;20667;-87
2022/12/03 18:41:24;;;;;;;58.57;31.70;;;;;;;;;;6591860;28;20531;-88
2022/12/03 18:44:35;;;;;;;64.47;32.80;;;;;;;;;;6589022;28;20180;-87
2022/12/03 18:47:45;;;;;;;66.87;33.03;;;;;;;;;;6590851;28;20184;-87
2022/12/03 18:50:56;;;;;;;72.93;35.73;;;;;;;;;;6573286;28;20211;-87